Fisher Golf — FUGD — position and weather

sailwx.info

Track history (hours):
 
Tides and Currents Weather Stations Pressure Air Temp Water Temp Dewpoint Dewpoint Depression Visibility Wind Speed Wind Dir Waves Ship Positions

Fisher Golf

Last reported at 2017-Mar-11 14:30 UTC. Time now 2017-Mar-29 15:13 UTC.
Position N 45°52' W 003°09'.
Warning: this ship's position is 18 days out of date.

Length 20 m.

Type: Fishing. MMSI: 228239000.

Date/timePositionNaut miles runAvg speedWind from/ knotsBaromVisibWave heightAir tempDewpointWater temp
2017-Mar-11 14:30N 45°52' W 003°09'5 1.2
2017-Mar-11 10:33N 45°56' W 003°13'3 2.7
2017-Mar-11 09:32N 45°57' W 003°17'3 3.0
2017-Mar-11 08:33N 45°54' W 003°14'3 3.0
2017-Mar-11 07:32N 45°53' W 003°10'7 3.3
2017-Mar-11 05:33N 45°50' W 003°02'6 2.7
2017-Mar-11 03:22N 45°46' W 002°56'67 1.3
2017-Mar-09 01:07N 45°55' W 001°20'0 0.0
2017-Mar-09 00:32N 45°55' W 001°20'  
2017-Mar-02 06:13N 45°54' W 001°23'  
Track history (hours):
 
Tides and Currents Weather Stations Pressure Air Temp Water Temp Dewpoint Dewpoint Depression Visibility Wind Speed Wind Dir Waves Ship Positions

Fisher Golf

Last reported at 2017-Mar-11 14:30 UTC. Time now 2017-Mar-29 15:13 UTC.
Position N 45°52' W 003°09'.
Warning: this ship's position is 18 days out of date.

Length 20 m.

Type: Fishing. MMSI: 228239000.

Date/timePositionNaut miles runAvg speedWind from/ knotsBaromVisibWave heightAir tempDewpointWater temp
2017-Mar-11 14:30N 45°52' W 003°09'5 1.2
2017-Mar-11 10:33N 45°56' W 003°13'3 2.7
2017-Mar-11 09:32N 45°57' W 003°17'3 3.0
2017-Mar-11 08:33N 45°54' W 003°14'3 3.0
2017-Mar-11 07:32N 45°53' W 003°10'7 3.3
2017-Mar-11 05:33N 45°50' W 003°02'6 2.7
2017-Mar-11 03:22N 45°46' W 002°56'67 1.3
2017-Mar-09 01:07N 45°55' W 001°20'0 0.0
2017-Mar-09 00:32N 45°55' W 001°20'  
2017-Mar-02 06:13N 45°54' W 001°23'  

Dump ship's entire track history